sensor_id;sensor_type;location;lat;lon;timestamp;pressure;altitude;pressure_sealevel;temperature;humidity
68871;BME280;55906;52.278;6.808;2023-05-01T00:01:17;101701.00;;;11.96;57.95
68871;BME280;55906;52.278;6.808;2023-05-01T00:03:44;101692.88;;;11.90;58.08
68871;BME280;55906;52.278;6.808;2023-05-01T00:06:10;101687.44;;;11.85;58.62
68871;BME280;55906;52.278;6.808;2023-05-01T00:08:38;101690.97;;;11.85;58.32
68871;BME280;55906;52.278;6.808;2023-05-01T00:11:05;101686.50;;;11.83;58.62
68871;BME280;55906;52.278;6.808;2023-05-01T00:13:34;101685.53;;;11.81;58.44
68871;BME280;55906;52.278;6.808;2023-05-01T00:16:00;101683.63;;;11.77;58.64
68871;BME280;55906;52.278;6.808;2023-05-01T00:18:28;101675.66;;;11.75;58.68
68871;BME280;55906;52.278;6.808;2023-05-01T00:20:55;101675.50;;;11.71;59.08
68871;BME280;55906;52.278;6.808;2023-05-01T00:23:21;101665.63;;;11.65;58.85
68871;BME280;55906;52.278;6.808;2023-05-01T00:25:49;101667.28;;;11.63;59.21
68871;BME280;55906;52.278;6.808;2023-05-01T00:28:17;101660.13;;;11.59;59.48
68871;BME280;55906;52.278;6.808;2023-05-01T00:30:43;101654.75;;;11.56;58.85
68871;BME280;55906;52.278;6.808;2023-05-01T00:33:11;101658.13;;;11.52;59.33
68871;BME280;55906;52.278;6.808;2023-05-01T00:35:38;101650.16;;;11.50;59.30
68871;BME280;55906;52.278;6.808;2023-05-01T00:38:04;101653.53;;;11.46;59.67
68871;BME280;55906;52.278;6.808;2023-05-01T00:40:31;101644.69;;;11.44;59.75
68871;BME280;55906;52.278;6.808;2023-05-01T00:42:59;101638.53;;;11.44;59.54
68871;BME280;55906;52.278;6.808;2023-05-01T00:45:26;101629.56;;;11.39;59.77
68871;BME280;55906;52.278;6.808;2023-05-01T00:47:52;101631.16;;;11.34;59.71
68871;BME280;55906;52.278;6.808;2023-05-01T00:50:19;101631.88;;;11.30;60.09
68871;BME280;55906;52.278;6.808;2023-05-01T00:52:45;101621.34;;;11.30;59.91
68871;BME280;55906;52.278;6.808;2023-05-01T00:55:12;101622.91;;;11.25;59.87
68871;BME280;55906;52.278;6.808;2023-05-01T00:57:39;101620.22;;;11.23;59.93
68871;BME280;55906;52.278;6.808;2023-05-01T01:00:08;101619.28;;;11.21;60.45
68871;BME280;55906;52.278;6.808;2023-05-01T01:02:36;101611.31;;;11.19;60.11
68871;BME280;55906;52.278;6.808;2023-05-01T01:05:04;101612.97;;;11.16;60.11
68871;BME280;55906;52.278;6.808;2023-05-01T01:07:36;101596.31;;;11.17;61.16
68871;BME280;55906;52.278;6.808;2023-05-01T01:10:11;101602.31;;;11.13;60.80
68871;BME280;55906;52.278;6.808;2023-05-01T01:12:46;101603.16;;;11.12;61.01
68871;BME280;55906;52.278;6.808;2023-05-01T01:15:26;101595.00;;;11.04;61.66
68871;BME280;55906;52.278;6.808;2023-05-01T01:17:58;101593.97;;;11.01;61.50
68871;BME280;55906;52.278;6.808;2023-05-01T01:20:31;101591.28;;;10.99;61.50
68871;BME280;55906;52.278;6.808;2023-05-01T01:23:18;101580.59;;;10.95;62.32
68871;BME280;55906;52.278;6.808;2023-05-01T01:26:12;101584.91;;;10.93;62.20
68871;BME280;55906;52.278;6.808;2023-05-01T01:31:59;101577.75;;;10.88;62.46
68871;BME280;55906;52.278;6.808;2023-05-01T01:34:33;101580.28;;;10.85;61.71
68871;BME280;55906;52.278;6.808;2023-05-01T01:37:04;101566.16;;;10.83;61.55
68871;BME280;55906;52.278;6.808;2023-05-01T01:39:38;101569.63;;;10.82;61.85
68871;BME280;55906;52.278;6.808;2023-05-01T01:42:13;101560.72;;;10.79;62.05
68871;BME280;55906;52.278;6.808;2023-05-01T01:44:46;101554.47;;;10.75;62.49
68871;BME280;55906;52.278;6.808;2023-05-01T01:47:14;101554.34;;;10.72;61.96
68871;BME280;55906;52.278;6.808;2023-05-01T01:49:44;101552.56;;;10.71;62.71
68871;BME280;55906;52.278;6.808;2023-05-01T01:52:14;101547.19;;;10.68;62.56
68871;BME280;55906;52.278;6.808;2023-05-01T01:54:44;101551.56;;;10.68;62.32
68871;BME280;55906;52.278;6.808;2023-05-01T01:57:16;101538.25;;;10.63;62.40
68871;BME280;55906;52.278;6.808;2023-05-01T01:59:45;101540.88;;;10.63;62.94
68871;BME280;55906;52.278;6.808;2023-05-01T02:02:13;101538.25;;;10.63;62.21
68871;BME280;55906;52.278;6.808;2023-05-01T02:04:43;101537.34;;;10.63;62.53
68871;BME280;55906;52.278;6.808;2023-05-01T02:07:11;101538.19;;;10.62;62.52
68871;BME280;55906;52.278;6.808;2023-05-01T02:09:40;101523.13;;;10.57;62.92
68871;BME280;55906;52.278;6.808;2023-05-01T02:12:07;101530.13;;;10.57;62.62
68871;BME280;55906;52.278;6.808;2023-05-01T02:14:36;101524.81;;;10.55;62.90
68871;BME280;55906;52.278;6.808;2023-05-01T02:17:04;101522.97;;;10.53;63.10
68871;BME280;55906;52.278;6.808;2023-05-01T02:19:33;101522.13;;;10.54;62.78
68871;BME280;55906;52.278;6.808;2023-05-01T02:22:03;101522.13;;;10.54;63.17
68871;BME280;55906;52.278;6.808;2023-05-01T02:24:31;101516.81;;;10.52;62.73
68871;BME280;55906;52.278;6.808;2023-05-01T02:27:02;101516.75;;;10.51;63.22
68871;BME280;55906;52.278;6.808;2023-05-01T02:29:30;101509.53;;;10.45;62.88
68871;BME280;55906;52.278;6.808;2023-05-01T02:31:58;101505.00;;;10.41;63.00
68871;BME280;55906;52.278;6.808;2023-05-01T02:34:25;101504.84;;;10.38;63.34
68871;BME280;55906;52.278;6.808;2023-05-01T02:36:52;101503.00;;;10.36;63.36
68871;BME280;55906;52.278;6.808;2023-05-01T02:39:20;101499.47;;;10.35;63.62
68871;BME280;55906;52.278;6.808;2023-05-01T02:41:47;101504.63;;;10.32;63.39
68871;BME280;55906;52.278;6.808;2023-05-01T02:44:14;101495.66;;;10.27;63.81
68871;BME280;55906;52.278;6.808;2023-05-01T02:46:42;101488.56;;;10.24;63.45
68871;BME280;55906;52.278;6.808;2023-05-01T02:49:11;101486.72;;;10.22;63.88
68871;BME280;55906;52.278;6.808;2023-05-01T02:51:38;101484.03;;;10.20;63.99
68871;BME280;55906;52.278;6.808;2023-05-01T02:54:06;101484.78;;;10.18;63.87
68871;BME280;55906;52.278;6.808;2023-05-01T02:56:34;101477.63;;;10.14;64.23
68871;BME280;55906;52.278;6.808;2023-05-01T02:59:01;101474.03;;;10.12;63.97
68871;BME280;55906;52.278;6.808;2023-05-01T03:01:27;101469.66;;;10.12;64.02
68871;BME280;55906;52.278;6.808;2023-05-01T03:03:54;101469.59;;;10.11;63.93
68871;BME280;55906;52.278;6.808;2023-05-01T03:06:21;101469.44;;;10.06;64.58
68871;BME280;55906;52.278;6.808;2023-05-01T03:08:47;101467.66;;;10.05;64.52
68871;BME280;55906;52.278;6.808;2023-05-01T03:11:14;101462.50;;;10.08;64.30
68871;BME280;55906;52.278;6.808;2023-05-01T03:13:42;101462.56;;;10.10;64.83
68871;BME280;55906;52.278;6.808;2023-05-01T03:16:08;101460.81;;;10.10;64.34
68871;BME280;55906;52.278;6.808;2023-05-01T03:18:35;101460.81;;;10.10;64.71
68871;BME280;55906;52.278;6.808;2023-05-01T03:21:02;101448.53;;;10.09;64.67
68871;BME280;55906;52.278;6.808;2023-05-01T03:23:28;101457.47;;;10.14;64.55
68871;BME280;55906;52.278;6.808;2023-05-01T03:25:55;101455.78;;;10.16;64.64
68871;BME280;55906;52.278;6.808;2023-05-01T03:28:22;101453.38;;;10.21;64.37
68871;BME280;55906;52.278;6.808;2023-05-01T03:30:50;101444.69;;;10.23;64.44
68871;BME280;55906;52.278;6.808;2023-05-01T03:33:16;101441.22;;;10.24;63.87
68871;BME280;55906;52.278;6.808;2023-05-01T03:35:43;101441.19;;;10.23;64.78
68871;BME280;55906;52.278;6.808;2023-05-01T03:38:10;101435.91;;;10.23;64.65
68871;BME280;55906;52.278;6.808;2023-05-01T03:40:36;101439.50;;;10.25;64.06
68871;BME280;55906;52.278;6.808;2023-05-01T03:43:03;101438.66;;;10.26;64.64
68871;BME280;55906;52.278;6.808;2023-05-01T03:45:29;101439.56;;;10.26;64.67
68871;BME280;55906;52.278;6.808;2023-05-01T03:47:57;101433.44;;;10.27;64.32
68871;BME280;55906;52.278;6.808;2023-05-01T03:50:24;101432.66;;;10.30;64.31
68871;BME280;55906;52.278;6.808;2023-05-01T03:52:50;101426.56;;;10.31;64.40
68871;BME280;55906;52.278;6.808;2023-05-01T03:55:17;101426.63;;;10.33;64.16
68871;BME280;55906;52.278;6.808;2023-05-01T03:57:44;101424.03;;;10.34;64.58
68871;BME280;55906;52.278;6.808;2023-05-01T04:00:12;101418.91;;;10.37;64.13
68871;BME280;55906;52.278;6.808;2023-05-01T04:02:39;101422.41;;;10.38;63.92
68871;BME280;55906;52.278;6.808;2023-05-01T04:05:07;101411.06;;;10.39;64.09
68871;BME280;55906;52.278;6.808;2023-05-01T04:07:34;101423.50;;;10.43;64.22
68871;BME280;55906;52.278;6.808;2023-05-01T04:10:01;101414.66;;;10.41;64.37
68871;BME280;55906;52.278;6.808;2023-05-01T04:12:28;101416.50;;;10.43;64.02
68871;BME280;55906;52.278;6.808;2023-05-01T04:14:55;101421.88;;;10.46;64.05
68871;BME280;55906;52.278;6.808;2023-05-01T04:17:22;101414.88;;;10.47;63.88
68871;BME280;55906;52.278;6.808;2023-05-01T04:19:49;101414.09;;;10.49;63.91
68871;BME280;55906;52.278;6.808;2023-05-01T04:22:17;101410.72;;;10.53;63.80
68871;BME280;55906;52.278;6.808;2023-05-01T04:24:43;101402.00;;;10.54;63.64
68871;BME280;55906;52.278;6.808;2023-05-01T04:27:11;101407.38;;;10.57;63.67
68871;BME280;55906;52.278;6.808;2023-05-01T04:29:37;101413.63;;;10.61;63.51
68871;BME280;55906;52.278;6.808;2023-05-01T04:32:04;101405.00;;;10.65;63.60
68871;BME280;55906;52.278;6.808;2023-05-01T04:34:30;101405.00;;;10.65;63.39
68871;BME280;55906;52.278;6.808;2023-05-01T04:36:57;101399.84;;;10.68;63.65
68871;BME280;55906;52.278;6.808;2023-05-01T04:39:25;101399.94;;;10.71;62.88
68871;BME280;55906;52.278;6.808;2023-05-01T04:41:52;101395.56;;;10.72;63.05
68871;BME280;55906;52.278;6.808;2023-05-01T04:44:18;101396.50;;;10.74;63.20
68871;BME280;55906;52.278;6.808;2023-05-01T04:46:45;101405.41;;;10.77;62.94
68871;BME280;55906;52.278;6.808;2023-05-01T04:49:11;101400.28;;;10.82;62.77
68871;BME280;55906;52.278;6.808;2023-05-01T04:51:38;101404.72;;;10.83;63.06
68871;BME280;55906;52.278;6.808;2023-05-01T04:54:05;101403.09;;;10.86;62.95
68871;BME280;55906;52.278;6.808;2023-05-01T04:56:33;101405.81;;;10.89;62.46
68871;BME280;55906;52.278;6.808;2023-05-01T04:58:59;101404.13;;;10.92;62.33
68871;BME280;55906;52.278;6.808;2023-05-01T05:01:26;101400.66;;;10.93;61.87
68871;BME280;55906;52.278;6.808;2023-05-01T05:03:52;101405.91;;;10.93;61.56
68871;BME280;55906;52.278;6.808;2023-05-01T05:06:19;101410.38;;;10.95;61.87
68871;BME280;55906;52.278;6.808;2023-05-01T05:08:46;101404.44;;;11.01;61.36
68871;BME280;55906;52.278;6.808;2023-05-01T05:11:16;101405.53;;;11.07;60.84
68871;BME280;55906;52.278;6.808;2023-05-01T05:13:44;101410.09;;;11.13;60.86
68871;BME280;55906;52.278;6.808;2023-05-01T05:16:11;101402.44;;;11.20;60.64
68871;BME280;55906;52.278;6.808;2023-05-01T05:18:37;101403.47;;;11.26;60.54
68871;BME280;55906;52.278;6.808;2023-05-01T05:21:04;101403.72;;;11.33;60.23
68871;BME280;55906;52.278;6.808;2023-05-01T05:23:31;101404.84;;;11.41;59.57
68871;BME280;55906;52.278;6.808;2023-05-01T05:25:58;101399.91;;;11.52;59.15
68871;BME280;55906;52.278;6.808;2023-05-01T05:28:25;101400.97;;;11.59;59.28
68871;BME280;55906;52.278;6.808;2023-05-01T05:30:53;101400.38;;;11.67;59.24
68871;BME280;55906;52.278;6.808;2023-05-01T05:33:20;101404.75;;;11.67;58.43
68871;BME280;55906;52.278;6.808;2023-05-01T05:35:49;101399.78;;;11.76;58.65
68871;BME280;55906;52.278;6.808;2023-05-01T05:38:16;101402.59;;;11.80;58.34
68871;BME280;55906;52.278;6.808;2023-05-01T05:40:42;101399.19;;;11.84;58.24
68871;BME280;55906;52.278;6.808;2023-05-01T05:43:09;101396.63;;;11.88;58.23
68871;BME280;55906;52.278;6.808;2023-05-01T05:45:36;101400.25;;;11.91;57.93
68871;BME280;55906;52.278;6.808;2023-05-01T05:48:04;101384.59;;;11.97;57.80
68871;BME280;55906;52.278;6.808;2023-05-01T05:50:31;101385.50;;;11.98;57.68
68871;BME280;55906;52.278;6.808;2023-05-01T05:52:57;101382.00;;;11.99;57.95
68871;BME280;55906;52.278;6.808;2023-05-01T05:55:24;101384.78;;;12.03;57.53
68871;BME280;55906;52.278;6.808;2023-05-01T05:57:51;101383.25;;;12.11;57.27
68871;BME280;55906;52.278;6.808;2023-05-01T06:00:17;101381.63;;;12.16;57.00
68871;BME280;55906;52.278;6.808;2023-05-01T06:02:44;101379.97;;;12.20;56.94
68871;BME280;55906;52.278;6.808;2023-05-01T06:05:12;101373.13;;;12.27;56.70
68871;BME280;55906;52.278;6.808;2023-05-01T06:07:39;101370.56;;;12.30;56.75
68871;BME280;55906;52.278;6.808;2023-05-01T06:10:06;101374.13;;;12.32;56.52
68871;BME280;55906;52.278;6.808;2023-05-01T06:12:33;101365.44;;;12.36;56.62
68871;BME280;55906;52.278;6.808;2023-05-01T06:14:59;101371.66;;;12.38;56.09
68871;BME280;55906;52.278;6.808;2023-05-01T06:17:27;101373.44;;;12.39;56.25
68871;BME280;55906;52.278;6.808;2023-05-01T06:19:53;101369.06;;;12.39;56.34
68871;BME280;55906;52.278;6.808;2023-05-01T06:22:21;101371.81;;;12.44;56.37
68871;BME280;55906;52.278;6.808;2023-05-01T06:24:48;101374.47;;;12.44;56.26
68871;BME280;55906;52.278;6.808;2023-05-01T06:27:15;101367.50;;;12.47;56.14
68871;BME280;55906;52.278;6.808;2023-05-01T06:29:41;101372.06;;;12.53;56.33
68871;BME280;55906;52.278;6.808;2023-05-01T06:32:08;101368.66;;;12.57;55.99
68871;BME280;55906;52.278;6.808;2023-05-01T06:34:34;101371.44;;;12.63;56.00
68871;BME280;55906;52.278;6.808;2023-05-01T06:37:01;101369.03;;;12.72;56.31
68871;BME280;55906;52.278;6.808;2023-05-01T06:39:30;101370.91;;;12.76;55.75
68871;BME280;55906;52.278;6.808;2023-05-01T06:41:57;101372.84;;;12.83;55.67
68871;BME280;55906;52.278;6.808;2023-05-01T06:44:24;101368.56;;;12.89;55.31
68871;BME280;55906;52.278;6.808;2023-05-01T06:46:50;101368.81;;;12.99;55.61
68871;BME280;55906;52.278;6.808;2023-05-01T06:49:17;101368.25;;;13.11;54.94
68871;BME280;55906;52.278;6.808;2023-05-01T06:51:43;101372.09;;;13.24;54.99
68871;BME280;55906;52.278;6.808;2023-05-01T06:54:10;101363.66;;;13.40;54.73
68871;BME280;55906;52.278;6.808;2023-05-01T06:56:38;101367.53;;;13.56;54.34
68871;BME280;55906;52.278;6.808;2023-05-01T06:59:05;101363.34;;;13.67;54.15
68871;BME280;55906;52.278;6.808;2023-05-01T07:01:31;101372.41;;;13.78;53.94
68871;BME280;55906;52.278;6.808;2023-05-01T07:03:58;101373.59;;;13.92;53.36
68871;BME280;55906;52.278;6.808;2023-05-01T07:06:24;101367.59;;;14.01;53.18
68871;BME280;55906;52.278;6.808;2023-05-01T07:08:51;101367.94;;;14.19;53.13
68871;BME280;55906;52.278;6.808;2023-05-01T07:11:18;101371.88;;;14.39;52.79
68871;BME280;55906;52.278;6.808;2023-05-01T07:13:46;101361.72;;;14.61;52.47
68871;BME280;55906;52.278;6.808;2023-05-01T07:16:13;101365.56;;;14.81;52.00
68871;BME280;55906;52.278;6.808;2023-05-01T07:18:39;101369.50;;;15.04;51.64
68871;BME280;55906;52.278;6.808;2023-05-01T07:21:06;101358.22;;;15.19;50.64
68871;BME280;55906;52.278;6.808;2023-05-01T07:23:34;101352.38;;;15.42;50.71
68871;BME280;55906;52.278;6.808;2023-05-01T07:26:00;101352.75;;;15.66;50.23
68871;BME280;55906;52.278;6.808;2023-05-01T07:28:27;101356.56;;;15.88;49.97
68871;BME280;55906;52.278;6.808;2023-05-01T07:30:55;101355.91;;;16.07;48.94
68871;BME280;55906;52.278;6.808;2023-05-01T07:33:22;101360.47;;;16.19;48.87
68871;BME280;55906;52.278;6.808;2023-05-01T07:35:50;101351.78;;;16.37;48.46
68871;BME280;55906;52.278;6.808;2023-05-01T07:38:17;101351.06;;;16.54;47.93
68871;BME280;55906;52.278;6.808;2023-05-01T07:40:44;101352.22;;;16.81;47.76
68871;BME280;55906;52.278;6.808;2023-05-01T07:43:10;101358.53;;;16.92;46.73
68871;BME280;55906;52.278;6.808;2023-05-01T07:45:37;101354.31;;;17.18;45.88
68871;BME280;55906;52.278;6.808;2023-05-01T07:48:05;101349.97;;;17.36;44.75
68871;BME280;55906;52.278;6.808;2023-05-01T07:50:32;101349.22;;;17.63;45.00
68871;BME280;55906;52.278;6.808;2023-05-01T07:52:59;101346.66;;;17.79;44.58
68871;BME280;55906;52.278;6.808;2023-05-01T07:55:25;101335.19;;;17.99;44.75
68871;BME280;55906;52.278;6.808;2023-05-01T07:57:52;101340.59;;;18.20;43.88
68871;BME280;55906;52.278;6.808;2023-05-01T08:00:19;101346.84;;;18.31;44.09
68871;BME280;55906;52.278;6.808;2023-05-01T08:02:45;101345.09;;;18.41;42.26
68871;BME280;55906;52.278;6.808;2023-05-01T08:05:13;101335.34;;;18.52;43.18
68871;BME280;55906;52.278;6.808;2023-05-01T08:07:40;101338.03;;;18.66;42.93
68871;BME280;55906;52.278;6.808;2023-05-01T08:10:07;101338.84;;;18.27;41.40
68871;BME280;55906;52.278;6.808;2023-05-01T08:12:34;101337.09;;;18.48;41.38
68871;BME280;55906;52.278;6.808;2023-05-01T08:15:01;101338.03;;;18.61;42.10
68871;BME280;55906;52.278;6.808;2023-05-01T08:17:27;101344.25;;;18.72;41.61
68871;BME280;55906;52.278;6.808;2023-05-01T08:19:54;101338.91;;;18.81;41.64
68871;BME280;55906;52.278;6.808;2023-05-01T08:22:23;101336.25;;;18.83;40.01
68871;BME280;55906;52.278;6.808;2023-05-01T08:24:49;101331.78;;;19.06;41.20
68871;BME280;55906;52.278;6.808;2023-05-01T08:27:16;101331.75;;;19.25;41.15
68871;BME280;55906;52.278;6.808;2023-05-01T08:29:43;101328.22;;;19.03;39.63
68871;BME280;55906;52.278;6.808;2023-05-01T08:32:10;101330.03;;;19.01;40.23
68871;BME280;55906;52.278;6.808;2023-05-01T08:34:36;101321.06;;;19.28;39.95
68871;BME280;55906;52.278;6.808;2023-05-01T08:37:03;101321.06;;;19.54;39.63
68871;BME280;55906;52.278;6.808;2023-05-01T08:39:31;101319.19;;;19.72;39.20
68871;BME280;55906;52.278;6.808;2023-05-01T08:41:58;101312.91;;;19.86;38.61
68871;BME280;55906;52.278;6.808;2023-05-01T08:44:25;101315.50;;;20.01;38.76
68871;BME280;55906;52.278;6.808;2023-05-01T08:46:57;101317.09;;;20.28;38.64
68871;BME280;55906;52.278;6.808;2023-05-01T08:49:27;101317.75;;;20.63;37.97
68871;BME280;55906;52.278;6.808;2023-05-01T08:51:58;101317.38;;;21.07;37.39
68871;BME280;55906;52.278;6.808;2023-05-01T08:54:31;101317.88;;;21.46;37.31
68871;BME280;55906;52.278;6.808;2023-05-01T08:57:00;101313.47;;;21.42;37.25
68871;BME280;55906;52.278;6.808;2023-05-01T08:59:28;101313.56;;;22.02;35.88
68871;BME280;55906;52.278;6.808;2023-05-01T09:01:59;101318.03;;;22.64;35.14
68871;BME280;55906;52.278;6.808;2023-05-01T09:04:28;101303.66;;;22.68;34.75
68871;BME280;55906;52.278;6.808;2023-05-01T09:06:58;101303.56;;;23.24;34.24
68871;BME280;55906;52.278;6.808;2023-05-01T09:09:26;101306.81;;;23.86;34.03
68871;BME280;55906;52.278;6.808;2023-05-01T09:11:55;101296.78;;;23.51;33.21
68871;BME280;55906;52.278;6.808;2023-05-01T09:14:22;101303.59;;;23.22;32.70
68871;BME280;55906;52.278;6.808;2023-05-01T09:16:49;101307.47;;;23.54;32.56
68871;BME280;55906;52.278;6.808;2023-05-01T09:19:15;101302.13;;;23.96;33.06
68871;BME280;55906;52.278;6.808;2023-05-01T09:21:42;101298.84;;;24.21;32.40
68871;BME280;55906;52.278;6.808;2023-05-01T09:24:09;101304.44;;;24.51;31.05
68871;BME280;55906;52.278;6.808;2023-05-01T09:26:38;101303.81;;;24.40;30.75
68871;BME280;55906;52.278;6.808;2023-05-01T09:29:07;101307.81;;;24.59;31.53
68871;BME280;55906;52.278;6.808;2023-05-01T09:31:36;101296.97;;;24.62;32.13
68871;BME280;55906;52.278;6.808;2023-05-01T09:34:04;101304.19;;;24.60;31.60
68871;BME280;55906;52.278;6.808;2023-05-01T09:36:32;101298.03;;;24.55;31.02
68871;BME280;55906;52.278;6.808;2023-05-01T09:39:00;101298.97;;;24.89;31.38
68871;BME280;55906;52.278;6.808;2023-05-01T09:41:27;101302.09;;;25.41;30.62
68871;BME280;55906;52.278;6.808;2023-05-01T09:43:56;101292.63;;;25.88;30.27
68871;BME280;55906;52.278;6.808;2023-05-01T09:46:25;101294.06;;;25.70;30.46
68871;BME280;55906;52.278;6.808;2023-05-01T09:48:54;101286.72;;;25.44;29.92
68871;BME280;55906;52.278;6.808;2023-05-01T09:51:23;101294.00;;;25.41;30.38
68871;BME280;55906;52.278;6.808;2023-05-01T09:53:51;101289.34;;;25.15;30.69
68871;BME280;55906;52.278;6.808;2023-05-01T09:56:18;101289.66;;;24.67;30.44
68871;BME280;55906;52.278;6.808;2023-05-01T09:58:46;101291.09;;;24.46;31.15
68871;BME280;55906;52.278;6.808;2023-05-01T10:01:13;101286.66;;;24.05;31.48
68871;BME280;55906;52.278;6.808;2023-05-01T10:03:42;101293.31;;;23.89;31.29
68871;BME280;55906;52.278;6.808;2023-05-01T10:06:09;101287.88;;;23.49;31.89
68871;BME280;55906;52.278;6.808;2023-05-01T10:08:47;101285.44;;;23.35;32.46
68871;BME280;55906;52.278;6.808;2023-05-01T10:11:14;101291.41;;;23.05;32.72
68871;BME280;55906;52.278;6.808;2023-05-01T10:13:41;101289.72;;;22.99;32.93
68871;BME280;55906;52.278;6.808;2023-05-01T10:16:27;101288.25;;;22.81;33.17
68871;BME280;55906;52.278;6.808;2023-05-01T10:18:56;101291.34;;;22.57;33.63
68871;BME280;55906;52.278;6.808;2023-05-01T10:21:22;101296.03;;;22.43;33.57
68871;BME280;55906;52.278;6.808;2023-05-01T10:23:50;101287.03;;;22.47;33.71
68871;BME280;55906;52.278;6.808;2023-05-01T10:26:17;101288.03;;;22.41;34.12
68871;BME280;55906;52.278;6.808;2023-05-01T10:28:46;101286.50;;;22.77;33.83
68871;BME280;55906;52.278;6.808;2023-05-01T10:31:13;101288.78;;;23.02;33.46
68871;BME280;55906;52.278;6.808;2023-05-01T10:33:41;101291.88;;;23.26;33.29
68871;BME280;55906;52.278;6.808;2023-05-01T10:36:11;101284.03;;;23.64;32.82
68871;BME280;55906;52.278;6.808;2023-05-01T10:38:42;101287.69;;;24.00;32.49
68871;BME280;55906;52.278;6.808;2023-05-01T10:41:13;101284.38;;;24.27;32.55
68871;BME280;55906;52.278;6.808;2023-05-01T10:43:39;101277.03;;;24.35;32.56
68871;BME280;55906;52.278;6.808;2023-05-01T10:46:25;101276.97;;;25.08;30.78
68871;BME280;55906;52.278;6.808;2023-05-01T10:48:55;101278.81;;;25.38;31.65
68871;BME280;55906;52.278;6.808;2023-05-01T10:51:24;101270.69;;;25.71;31.10
68871;BME280;55906;52.278;6.808;2023-05-01T10:54:22;101274.66;;;25.87;30.25
68871;BME280;55906;52.278;6.808;2023-05-01T10:56:50;101274.72;;;26.43;30.51
68871;BME280;55906;52.278;6.808;2023-05-01T10:59:16;101272.00;;;26.96;29.96
68871;BME280;55906;52.278;6.808;2023-05-01T11:01:44;101271.16;;;27.20;29.82
68871;BME280;55906;52.278;6.808;2023-05-01T11:04:47;101263.56;;;27.31;27.40
68871;BME280;55906;52.278;6.808;2023-05-01T11:07:17;101259.69;;;27.38;29.84
68871;BME280;55906;52.278;6.808;2023-05-01T11:09:45;101255.66;;;27.25;29.88
68871;BME280;55906;52.278;6.808;2023-05-01T11:12:14;101263.19;;;26.91;29.86
68871;BME280;55906;52.278;6.808;2023-05-01T11:15:01;101260.63;;;26.61;28.85
68871;BME280;55906;52.278;6.808;2023-05-01T11:17:44;101260.19;;;26.73;29.34
68871;BME280;55906;52.278;6.808;2023-05-01T11:20:12;101254.50;;;26.56;29.92
68871;BME280;55906;52.278;6.808;2023-05-01T11:22:44;101249.69;;;27.16;29.59
68871;BME280;55906;52.278;6.808;2023-05-01T11:25:19;101249.31;;;27.26;28.56
68871;BME280;55906;52.278;6.808;2023-05-01T11:27:47;101244.59;;;27.80;28.56
68871;BME280;55906;52.278;6.808;2023-05-01T11:30:14;101250.53;;;28.11;28.59
68871;BME280;55906;52.278;6.808;2023-05-01T11:32:42;101246.81;;;28.57;27.50
68871;BME280;55906;52.278;6.808;2023-05-01T11:35:16;101248.84;;;29.15;26.18
68871;BME280;55906;52.278;6.808;2023-05-01T11:37:45;101237.91;;;29.76;25.79
68871;BME280;55906;52.278;6.808;2023-05-01T11:40:23;101241.84;;;29.87;24.67
68871;BME280;55906;52.278;6.808;2023-05-01T11:42:56;101240.31;;;29.63;24.52
68871;BME280;55906;52.278;6.808;2023-05-01T11:45:25;101240.28;;;30.02;23.94
68871;BME280;55906;52.278;6.808;2023-05-01T11:47:52;101234.84;;;30.38;24.39
68871;BME280;55906;52.278;6.808;2023-05-01T11:50:18;101232.38;;;30.34;24.40
68871;BME280;55906;52.278;6.808;2023-05-01T11:52:48;101237.41;;;30.41;25.00
68871;BME280;55906;52.278;6.808;2023-05-01T11:55:18;101227.88;;;30.86;24.64
68871;BME280;55906;52.278;6.808;2023-05-01T11:57:46;101233.19;;;30.53;24.60
68871;BME280;55906;52.278;6.808;2023-05-01T12:00:15;101233.91;;;31.08;24.06
68871;BME280;55906;52.278;6.808;2023-05-01T12:02:55;101226.53;;;31.45;23.96
68871;BME280;55906;52.278;6.808;2023-05-01T12:05:23;101228.28;;;30.78;23.99
68871;BME280;55906;52.278;6.808;2023-05-01T12:07:51;101222.97;;;31.10;23.97
68871;BME280;55906;52.278;6.808;2023-05-01T12:10:31;101223.59;;;30.46;23.75
68871;BME280;55906;52.278;6.808;2023-05-01T12:12:58;101219.13;;;30.45;23.56
68871;BME280;55906;52.278;6.808;2023-05-01T12:15:25;101233.50;;;30.47;24.18
68871;BME280;55906;52.278;6.808;2023-05-01T12:17:51;101226.09;;;31.02;23.42
68871;BME280;55906;52.278;6.808;2023-05-01T12:20:33;101224.31;;;31.36;22.87
68871;BME280;55906;52.278;6.808;2023-05-01T12:23:01;101220.63;;;31.70;22.73
68871;BME280;55906;52.278;6.808;2023-05-01T12:25:29;101218.00;;;31.84;22.81
68871;BME280;55906;52.278;6.808;2023-05-01T12:27:58;101211.44;;;31.55;23.11
68871;BME280;55906;52.278;6.808;2023-05-01T12:30:26;101221.38;;;31.56;22.82
68871;BME280;55906;52.278;6.808;2023-05-01T12:32:54;101216.00;;;31.39;21.66
68871;BME280;55906;52.278;6.808;2023-05-01T12:35:22;101215.03;;;31.56;22.23
68871;BME280;55906;52.278;6.808;2023-05-01T12:37:54;101219.59;;;31.55;21.18
68871;BME280;55906;52.278;6.808;2023-05-01T12:40:22;101210.22;;;31.61;22.39
68871;BME280;55906;52.278;6.808;2023-05-01T12:42:53;101206.34;;;31.49;21.45
68871;BME280;55906;52.278;6.808;2023-05-01T12:45:21;101213.28;;;31.55;21.64
68871;BME280;55906;52.278;6.808;2023-05-01T12:47:48;101220.13;;;30.61;22.38
68871;BME280;55906;52.278;6.808;2023-05-01T12:50:15;101215.09;;;30.17;22.00
68871;BME280;55906;52.278;6.808;2023-05-01T12:52:42;101219.44;;;30.03;22.37
68871;BME280;55906;52.278;6.808;2023-05-01T12:55:09;101220.47;;;30.36;22.97
68871;BME280;55906;52.278;6.808;2023-05-01T12:57:51;101219.78;;;30.84;22.38
68871;BME280;55906;52.278;6.808;2023-05-01T13:00:18;101211.22;;;30.40;22.66